sensor_id;sensor_type;location;lat;lon;timestamp;P1;durP1;ratioP1;P2;durP2;ratioP2
4525;SDS011;2275;52.208;8.804;2022-11-06T00:01:06;9.85;;;5.57;;
4525;SDS011;2275;52.208;8.804;2022-11-06T00:06:12;9.60;;;5.60;;
4525;SDS011;2275;52.208;8.804;2022-11-06T00:08:44;8.88;;;5.00;;
4525;SDS011;2275;52.208;8.804;2022-11-06T00:11:12;13.07;;;5.82;;
4525;SDS011;2275;52.208;8.804;2022-11-06T00:13:39;9.05;;;4.87;;
4525;SDS011;2275;52.208;8.804;2022-11-06T00:16:07;10.50;;;5.30;;
4525;SDS011;2275;52.208;8.804;2022-11-06T00:18:34;9.40;;;5.05;;
4525;SDS011;2275;52.208;8.804;2022-11-06T00:21:06;9.60;;;5.15;;
4525;SDS011;2275;52.208;8.804;2022-11-06T00:23:35;8.73;;;5.22;;
4525;SDS011;2275;52.208;8.804;2022-11-06T00:26:04;11.27;;;5.30;;
4525;SDS011;2275;52.208;8.804;2022-11-06T00:28:31;10.70;;;5.50;;
4525;SDS011;2275;52.208;8.804;2022-11-06T00:33:31;10.02;;;5.20;;
4525;SDS011;2275;52.208;8.804;2022-11-06T00:36:00;11.88;;;5.78;;
4525;SDS011;2275;52.208;8.804;2022-11-06T00:38:27;9.93;;;5.55;;
4525;SDS011;2275;52.208;8.804;2022-11-06T00:41:05;10.70;;;5.20;;
4525;SDS011;2275;52.208;8.804;2022-11-06T00:46:43;9.07;;;4.72;;
4525;SDS011;2275;52.208;8.804;2022-11-06T00:49:14;12.80;;;5.80;;
4525;SDS011;2275;52.208;8.804;2022-11-06T00:51:41;11.80;;;5.67;;
4525;SDS011;2275;52.208;8.804;2022-11-06T00:54:10;11.02;;;5.60;;
4525;SDS011;2275;52.208;8.804;2022-11-06T00:56:36;12.43;;;5.90;;
4525;SDS011;2275;52.208;8.804;2022-11-06T00:59:05;10.15;;;5.18;;
4525;SDS011;2275;52.208;8.804;2022-11-06T01:01:32;10.52;;;5.95;;
4525;SDS011;2275;52.208;8.804;2022-11-06T01:03:59;12.55;;;4.75;;
4525;SDS011;2275;52.208;8.804;2022-11-06T01:06:28;8.93;;;4.25;;
4525;SDS011;2275;52.208;8.804;2022-11-06T01:08:55;13.02;;;5.75;;
4525;SDS011;2275;52.208;8.804;2022-11-06T01:11:24;12.43;;;6.00;;
4525;SDS011;2275;52.208;8.804;2022-11-06T01:13:49;10.73;;;5.60;;
4525;SDS011;2275;52.208;8.804;2022-11-06T01:16:17;8.52;;;4.93;;
4525;SDS011;2275;52.208;8.804;2022-11-06T01:18:44;10.32;;;5.12;;
4525;SDS011;2275;52.208;8.804;2022-11-06T01:21:13;8.52;;;5.30;;
4525;SDS011;2275;52.208;8.804;2022-11-06T01:23:39;8.20;;;4.85;;
4525;SDS011;2275;52.208;8.804;2022-11-06T01:26:06;10.55;;;5.50;;
4525;SDS011;2275;52.208;8.804;2022-11-06T01:28:33;8.20;;;5.50;;
4525;SDS011;2275;52.208;8.804;2022-11-06T01:31:03;8.68;;;5.22;;
4525;SDS011;2275;52.208;8.804;2022-11-06T01:39:33;11.68;;;5.25;;
4525;SDS011;2275;52.208;8.804;2022-11-06T01:41:59;10.65;;;5.68;;
4525;SDS011;2275;52.208;8.804;2022-11-06T01:47:23;11.23;;;6.00;;
4525;SDS011;2275;52.208;8.804;2022-11-06T01:49:50;9.80;;;5.80;;
4525;SDS011;2275;52.208;8.804;2022-11-06T01:52:16;9.90;;;5.47;;
4525;SDS011;2275;52.208;8.804;2022-11-06T01:54:43;11.75;;;6.55;;
4525;SDS011;2275;52.208;8.804;2022-11-06T01:57:11;11.12;;;6.20;;
4525;SDS011;2275;52.208;8.804;2022-11-06T01:59:39;13.15;;;5.90;;
4525;SDS011;2275;52.208;8.804;2022-11-06T02:02:05;12.30;;;5.80;;
4525;SDS011;2275;52.208;8.804;2022-11-06T02:04:35;9.60;;;5.70;;
4525;SDS011;2275;52.208;8.804;2022-11-06T02:07:04;10.80;;;6.33;;
4525;SDS011;2275;52.208;8.804;2022-11-06T02:09:30;9.23;;;4.78;;
4525;SDS011;2275;52.208;8.804;2022-11-06T02:12:12;14.03;;;6.20;;
4525;SDS011;2275;52.208;8.804;2022-11-06T02:17:05;8.60;;;4.90;;
4525;SDS011;2275;52.208;8.804;2022-11-06T02:19:53;12.40;;;5.73;;
4525;SDS011;2275;52.208;8.804;2022-11-06T02:22:25;8.57;;;4.80;;
4525;SDS011;2275;52.208;8.804;2022-11-06T02:24:59;11.20;;;5.40;;
4525;SDS011;2275;52.208;8.804;2022-11-06T02:27:21;12.50;;;5.22;;
4525;SDS011;2275;52.208;8.804;2022-11-06T02:29:59;11.70;;;5.00;;
4525;SDS011;2275;52.208;8.804;2022-11-06T02:32:33;11.57;;;6.00;;
4525;SDS011;2275;52.208;8.804;2022-11-06T02:35:21;7.87;;;5.10;;
4525;SDS011;2275;52.208;8.804;2022-11-06T02:37:54;11.10;;;4.97;;
4525;SDS011;2275;52.208;8.804;2022-11-06T02:40:25;10.52;;;5.32;;
4525;SDS011;2275;52.208;8.804;2022-11-06T02:42:53;9.82;;;4.40;;
4525;SDS011;2275;52.208;8.804;2022-11-06T02:45:20;9.90;;;5.30;;
4525;SDS011;2275;52.208;8.804;2022-11-06T02:47:48;14.13;;;5.05;;
4525;SDS011;2275;52.208;8.804;2022-11-06T02:50:18;9.50;;;4.70;;
4525;SDS011;2275;52.208;8.804;2022-11-06T02:52:47;10.63;;;4.22;;
4525;SDS011;2275;52.208;8.804;2022-11-06T02:55:14;9.82;;;4.40;;
4525;SDS011;2275;52.208;8.804;2022-11-06T02:57:42;13.30;;;5.28;;
4525;SDS011;2275;52.208;8.804;2022-11-06T03:00:08;7.10;;;4.32;;
4525;SDS011;2275;52.208;8.804;2022-11-06T03:02:39;11.60;;;4.82;;
4525;SDS011;2275;52.208;8.804;2022-11-06T03:05:16;10.07;;;4.30;;
4525;SDS011;2275;52.208;8.804;2022-11-06T03:07:51;6.47;;;3.55;;
4525;SDS011;2275;52.208;8.804;2022-11-06T03:10:38;10.02;;;4.30;;
4525;SDS011;2275;52.208;8.804;2022-11-06T03:13:11;9.98;;;4.37;;
4525;SDS011;2275;52.208;8.804;2022-11-06T03:15:38;8.38;;;3.78;;
4525;SDS011;2275;52.208;8.804;2022-11-06T03:18:08;6.75;;;4.18;;
4525;SDS011;2275;52.208;8.804;2022-11-06T03:20:36;11.02;;;4.12;;
4525;SDS011;2275;52.208;8.804;2022-11-06T03:23:22;8.90;;;4.50;;
4525;SDS011;2275;52.208;8.804;2022-11-06T03:25:53;10.20;;;4.50;;
4525;SDS011;2275;52.208;8.804;2022-11-06T03:28:28;6.68;;;3.78;;
4525;SDS011;2275;52.208;8.804;2022-11-06T03:30:58;7.37;;;4.18;;
4525;SDS011;2275;52.208;8.804;2022-11-06T03:33:31;12.63;;;3.85;;
4525;SDS011;2275;52.208;8.804;2022-11-06T03:36:15;9.90;;;4.10;;
4525;SDS011;2275;52.208;8.804;2022-11-06T03:38:43;13.52;;;4.65;;
4525;SDS011;2275;52.208;8.804;2022-11-06T03:41:11;6.35;;;4.12;;
4525;SDS011;2275;52.208;8.804;2022-11-06T03:43:38;7.85;;;4.37;;
4525;SDS011;2275;52.208;8.804;2022-11-06T03:46:05;7.47;;;3.70;;
4525;SDS011;2275;52.208;8.804;2022-11-06T03:48:43;11.02;;;4.05;;
4525;SDS011;2275;52.208;8.804;2022-11-06T03:51:13;15.90;;;4.25;;
4525;SDS011;2275;52.208;8.804;2022-11-06T03:53:44;6.12;;;3.80;;
4525;SDS011;2275;52.208;8.804;2022-11-06T03:56:08;9.13;;;4.00;;
4525;SDS011;2275;52.208;8.804;2022-11-06T03:58:36;8.80;;;3.00;;
4525;SDS011;2275;52.208;8.804;2022-11-06T04:01:03;10.05;;;4.40;;
4525;SDS011;2275;52.208;8.804;2022-11-06T04:03:33;7.45;;;3.60;;
4525;SDS011;2275;52.208;8.804;2022-11-06T04:06:06;7.35;;;3.50;;
4525;SDS011;2275;52.208;8.804;2022-11-06T04:08:31;6.00;;;3.58;;
4525;SDS011;2275;52.208;8.804;2022-11-06T04:11:04;7.10;;;3.70;;
4525;SDS011;2275;52.208;8.804;2022-11-06T04:13:37;7.07;;;3.90;;
4525;SDS011;2275;52.208;8.804;2022-11-06T04:16:10;10.38;;;3.37;;
4525;SDS011;2275;52.208;8.804;2022-11-06T04:18:37;8.98;;;3.30;;
4525;SDS011;2275;52.208;8.804;2022-11-06T04:24:01;8.50;;;3.55;;
4525;SDS011;2275;52.208;8.804;2022-11-06T04:26:34;11.40;;;3.67;;
4525;SDS011;2275;52.208;8.804;2022-11-06T04:29:37;6.78;;;3.55;;
4525;SDS011;2275;52.208;8.804;2022-11-06T04:31:55;8.07;;;4.10;;
4525;SDS011;2275;52.208;8.804;2022-11-06T04:34:37;5.10;;;3.58;;
4525;SDS011;2275;52.208;8.804;2022-11-06T04:37:15;8.23;;;3.37;;
4525;SDS011;2275;52.208;8.804;2022-11-06T04:40:15;8.90;;;3.70;;
4525;SDS011;2275;52.208;8.804;2022-11-06T04:45:27;9.80;;;3.80;;
4525;SDS011;2275;52.208;8.804;2022-11-06T04:47:52;4.53;;;3.20;;
4525;SDS011;2275;52.208;8.804;2022-11-06T04:50:21;9.18;;;3.80;;
4525;SDS011;2275;52.208;8.804;2022-11-06T04:52:49;7.05;;;3.60;;
4525;SDS011;2275;52.208;8.804;2022-11-06T04:55:17;7.82;;;3.33;;
4525;SDS011;2275;52.208;8.804;2022-11-06T04:57:45;7.60;;;3.47;;
4525;SDS011;2275;52.208;8.804;2022-11-06T05:00:12;9.88;;;3.33;;
4525;SDS011;2275;52.208;8.804;2022-11-06T05:02:40;5.45;;;3.08;;
4525;SDS011;2275;52.208;8.804;2022-11-06T05:05:07;7.70;;;3.53;;
4525;SDS011;2275;52.208;8.804;2022-11-06T05:07:35;7.03;;;3.05;;
4525;SDS011;2275;52.208;8.804;2022-11-06T05:10:04;5.85;;;3.10;;
4525;SDS011;2275;52.208;8.804;2022-11-06T05:12:31;6.55;;;3.30;;
4525;SDS011;2275;52.208;8.804;2022-11-06T05:15:00;6.78;;;3.20;;
4525;SDS011;2275;52.208;8.804;2022-11-06T05:17:28;10.00;;;3.35;;
4525;SDS011;2275;52.208;8.804;2022-11-06T05:19:56;4.72;;;3.17;;
4525;SDS011;2275;52.208;8.804;2022-11-06T05:22:23;8.45;;;3.37;;
4525;SDS011;2275;52.208;8.804;2022-11-06T05:24:56;6.47;;;3.37;;
4525;SDS011;2275;52.208;8.804;2022-11-06T05:27:23;8.57;;;3.45;;
4525;SDS011;2275;52.208;8.804;2022-11-06T05:29:51;8.18;;;3.50;;
4525;SDS011;2275;52.208;8.804;2022-11-06T05:32:18;7.28;;;2.75;;
4525;SDS011;2275;52.208;8.804;2022-11-06T05:34:44;4.97;;;3.20;;
4525;SDS011;2275;52.208;8.804;2022-11-06T05:37:11;6.28;;;3.40;;
4525;SDS011;2275;52.208;8.804;2022-11-06T05:39:38;5.15;;;3.00;;
4525;SDS011;2275;52.208;8.804;2022-11-06T05:42:05;8.63;;;3.40;;
4525;SDS011;2275;52.208;8.804;2022-11-06T05:44:32;5.97;;;3.05;;
4525;SDS011;2275;52.208;8.804;2022-11-06T05:47:00;11.40;;;3.55;;
4525;SDS011;2275;52.208;8.804;2022-11-06T05:49:27;6.18;;;2.95;;
4525;SDS011;2275;52.208;8.804;2022-11-06T05:51:54;5.78;;;3.00;;
4525;SDS011;2275;52.208;8.804;2022-11-06T05:54:22;10.43;;;3.40;;
4525;SDS011;2275;52.208;8.804;2022-11-06T05:56:49;5.87;;;3.28;;
4525;SDS011;2275;52.208;8.804;2022-11-06T05:59:16;7.05;;;3.10;;
4525;SDS011;2275;52.208;8.804;2022-11-06T06:01:43;6.72;;;3.20;;
4525;SDS011;2275;52.208;8.804;2022-11-06T06:04:10;5.22;;;2.90;;
4525;SDS011;2275;52.208;8.804;2022-11-06T06:06:38;7.87;;;3.50;;
4525;SDS011;2275;52.208;8.804;2022-11-06T06:09:08;8.80;;;3.95;;
4525;SDS011;2275;52.208;8.804;2022-11-06T06:11:36;9.45;;;3.40;;
4525;SDS011;2275;52.208;8.804;2022-11-06T06:14:03;11.80;;;3.47;;
4525;SDS011;2275;52.208;8.804;2022-11-06T06:16:30;6.65;;;2.67;;
4525;SDS011;2275;52.208;8.804;2022-11-06T06:18:58;8.52;;;3.45;;
4525;SDS011;2275;52.208;8.804;2022-11-06T06:21:27;8.68;;;3.78;;
4525;SDS011;2275;52.208;8.804;2022-11-06T06:23:54;7.60;;;2.60;;
4525;SDS011;2275;52.208;8.804;2022-11-06T06:26:21;6.35;;;2.90;;
4525;SDS011;2275;52.208;8.804;2022-11-06T06:28:48;6.65;;;3.08;;
4525;SDS011;2275;52.208;8.804;2022-11-06T06:31:15;4.87;;;2.90;;
4525;SDS011;2275;52.208;8.804;2022-11-06T06:33:43;6.75;;;2.78;;
4525;SDS011;2275;52.208;8.804;2022-11-06T06:36:10;7.68;;;3.40;;
4525;SDS011;2275;52.208;8.804;2022-11-06T06:38:37;6.03;;;3.20;;
4525;SDS011;2275;52.208;8.804;2022-11-06T06:41:04;10.38;;;3.40;;
4525;SDS011;2275;52.208;8.804;2022-11-06T06:43:31;6.32;;;2.53;;
4525;SDS011;2275;52.208;8.804;2022-11-06T06:45:59;4.80;;;3.20;;
4525;SDS011;2275;52.208;8.804;2022-11-06T06:48:26;8.20;;;3.10;;
4525;SDS011;2275;52.208;8.804;2022-11-06T06:50:55;9.73;;;2.92;;
4525;SDS011;2275;52.208;8.804;2022-11-06T06:53:23;7.50;;;3.00;;
4525;SDS011;2275;52.208;8.804;2022-11-06T06:55:50;7.18;;;2.90;;
4525;SDS011;2275;52.208;8.804;2022-11-06T06:58:16;6.75;;;2.92;;
4525;SDS011;2275;52.208;8.804;2022-11-06T07:00:45;4.97;;;2.45;;
4525;SDS011;2275;52.208;8.804;2022-11-06T07:03:11;8.57;;;2.80;;
4525;SDS011;2275;52.208;8.804;2022-11-06T07:05:39;7.10;;;3.10;;
4525;SDS011;2275;52.208;8.804;2022-11-06T07:08:06;10.30;;;2.87;;
4525;SDS011;2275;52.208;8.804;2022-11-06T07:10:33;7.20;;;2.83;;
4525;SDS011;2275;52.208;8.804;2022-11-06T07:13:01;5.93;;;2.42;;
4525;SDS011;2275;52.208;8.804;2022-11-06T07:15:28;8.85;;;3.00;;
4525;SDS011;2275;52.208;8.804;2022-11-06T07:17:59;6.22;;;2.65;;
4525;SDS011;2275;52.208;8.804;2022-11-06T07:20:22;6.82;;;2.58;;
4525;SDS011;2275;52.208;8.804;2022-11-06T07:23:00;4.72;;;2.45;;
4525;SDS011;2275;52.208;8.804;2022-11-06T07:25:33;6.20;;;2.78;;
4525;SDS011;2275;52.208;8.804;2022-11-06T07:28:01;8.18;;;3.00;;
4525;SDS011;2275;52.208;8.804;2022-11-06T07:30:29;5.15;;;2.72;;
4525;SDS011;2275;52.208;8.804;2022-11-06T07:32:58;6.40;;;2.87;;
4525;SDS011;2275;52.208;8.804;2022-11-06T07:35:23;5.45;;;3.03;;
4525;SDS011;2275;52.208;8.804;2022-11-06T07:37:50;5.70;;;2.90;;
4525;SDS011;2275;52.208;8.804;2022-11-06T07:40:17;8.60;;;3.05;;
4525;SDS011;2275;52.208;8.804;2022-11-06T07:42:45;7.78;;;2.87;;
4525;SDS011;2275;52.208;8.804;2022-11-06T07:45:12;6.55;;;3.33;;
4525;SDS011;2275;52.208;8.804;2022-11-06T07:47:39;7.65;;;2.80;;
4525;SDS011;2275;52.208;8.804;2022-11-06T07:50:07;6.90;;;3.10;;
4525;SDS011;2275;52.208;8.804;2022-11-06T07:52:34;5.95;;;2.47;;
4525;SDS011;2275;52.208;8.804;2022-11-06T07:55:01;5.25;;;2.70;;
4525;SDS011;2275;52.208;8.804;2022-11-06T07:57:29;7.45;;;3.03;;
4525;SDS011;2275;52.208;8.804;2022-11-06T07:59:57;5.47;;;2.75;;
4525;SDS011;2275;52.208;8.804;2022-11-06T08:02:25;5.82;;;2.80;;
4525;SDS011;2275;52.208;8.804;2022-11-06T08:04:53;8.00;;;3.10;;
4525;SDS011;2275;52.208;8.804;2022-11-06T08:07:20;6.30;;;3.30;;
4525;SDS011;2275;52.208;8.804;2022-11-06T08:09:48;6.45;;;2.90;;
4525;SDS011;2275;52.208;8.804;2022-11-06T08:12:15;6.25;;;3.12;;
4525;SDS011;2275;52.208;8.804;2022-11-06T08:14:42;7.00;;;3.10;;
4525;SDS011;2275;52.208;8.804;2022-11-06T08:17:11;5.95;;;3.10;;
4525;SDS011;2275;52.208;8.804;2022-11-06T08:19:38;6.00;;;3.08;;
4525;SDS011;2275;52.208;8.804;2022-11-06T08:22:06;6.12;;;3.10;;
4525;SDS011;2275;52.208;8.804;2022-11-06T08:24:33;6.50;;;3.00;;
4525;SDS011;2275;52.208;8.804;2022-11-06T08:27:02;5.75;;;2.97;;
4525;SDS011;2275;52.208;8.804;2022-11-06T08:29:29;5.40;;;2.90;;
4525;SDS011;2275;52.208;8.804;2022-11-06T08:31:58;6.78;;;3.30;;
4525;SDS011;2275;52.208;8.804;2022-11-06T08:34:25;7.03;;;3.50;;
4525;SDS011;2275;52.208;8.804;2022-11-06T08:36:55;6.87;;;2.92;;
4525;SDS011;2275;52.208;8.804;2022-11-06T08:39:22;6.13;;;3.03;;
4525;SDS011;2275;52.208;8.804;2022-11-06T08:41:49;14.23;;;3.45;;
4525;SDS011;2275;52.208;8.804;2022-11-06T08:44:16;5.05;;;3.03;;
4525;SDS011;2275;52.208;8.804;2022-11-06T08:46:42;6.65;;;3.30;;
4525;SDS011;2275;52.208;8.804;2022-11-06T08:49:09;5.65;;;3.10;;
4525;SDS011;2275;52.208;8.804;2022-11-06T08:51:36;13.62;;;3.42;;
4525;SDS011;2275;52.208;8.804;2022-11-06T08:54:04;7.75;;;3.80;;
4525;SDS011;2275;52.208;8.804;2022-11-06T08:56:31;11.40;;;3.72;;
4525;SDS011;2275;52.208;8.804;2022-11-06T08:58:58;8.05;;;3.40;;
4525;SDS011;2275;52.208;8.804;2022-11-06T09:01:25;11.38;;;3.67;;
4525;SDS011;2275;52.208;8.804;2022-11-06T09:03:52;6.82;;;3.30;;
4525;SDS011;2275;52.208;8.804;2022-11-06T09:06:19;9.30;;;3.87;;
4525;SDS011;2275;52.208;8.804;2022-11-06T09:08:46;5.32;;;3.00;;
4525;SDS011;2275;52.208;8.804;2022-11-06T09:11:13;7.00;;;3.03;;
4525;SDS011;2275;52.208;8.804;2022-11-06T09:13:41;6.12;;;2.85;;
4525;SDS011;2275;52.208;8.804;2022-11-06T09:16:08;8.23;;;2.95;;
4525;SDS011;2275;52.208;8.804;2022-11-06T09:18:35;6.28;;;2.90;;
4525;SDS011;2275;52.208;8.804;2022-11-06T09:21:02;5.90;;;2.92;;
4525;SDS011;2275;52.208;8.804;2022-11-06T09:23:29;8.18;;;3.25;;
4525;SDS011;2275;52.208;8.804;2022-11-06T09:29:04;5.53;;;2.65;;
4525;SDS011;2275;52.208;8.804;2022-11-06T09:31:35;8.60;;;3.10;;
4525;SDS011;2275;52.208;8.804;2022-11-06T09:34:15;6.85;;;2.72;;
4525;SDS011;2275;52.208;8.804;2022-11-06T09:36:42;7.03;;;3.20;;
4525;SDS011;2275;52.208;8.804;2022-11-06T09:39:09;3.70;;;2.60;;
4525;SDS011;2275;52.208;8.804;2022-11-06T09:42:48;5.87;;;2.80;;
4525;SDS011;2275;52.208;8.804;2022-11-06T09:47:11;6.95;;;2.35;;
4525;SDS011;2275;52.208;8.804;2022-11-06T09:49:36;5.75;;;2.58;;
4525;SDS011;2275;52.208;8.804;2022-11-06T09:52:05;4.32;;;2.33;;
4525;SDS011;2275;52.208;8.804;2022-11-06T09:54:36;4.75;;;2.33;;
4525;SDS011;2275;52.208;8.804;2022-11-06T09:57:05;5.50;;;2.80;;
4525;SDS011;2275;52.208;8.804;2022-11-06T09:59:32;5.25;;;2.60;;
4525;SDS011;2275;52.208;8.804;2022-11-06T10:01:59;4.60;;;2.55;;
4525;SDS011;2275;52.208;8.804;2022-11-06T10:04:34;6.30;;;2.57;;
4525;SDS011;2275;52.208;8.804;2022-11-06T10:09:50;6.10;;;2.70;;
4525;SDS011;2275;52.208;8.804;2022-11-06T10:12:25;4.55;;;2.20;;
4525;SDS011;2275;52.208;8.804;2022-11-06T10:15:16;4.07;;;2.70;;
4525;SDS011;2275;52.208;8.804;2022-11-06T10:20:40;4.05;;;2.45;;
4525;SDS011;2275;52.208;8.804;2022-11-06T10:32:13;7.30;;;2.90;;
4525;SDS011;2275;52.208;8.804;2022-11-06T10:34:29;5.57;;;2.67;;
4525;SDS011;2275;52.208;8.804;2022-11-06T10:36:58;6.47;;;3.05;;
4525;SDS011;2275;52.208;8.804;2022-11-06T10:39:26;7.90;;;3.90;;
4525;SDS011;2275;52.208;8.804;2022-11-06T10:41:53;5.68;;;2.90;;
4525;SDS011;2275;52.208;8.804;2022-11-06T10:44:21;6.28;;;2.70;;
4525;SDS011;2275;52.208;8.804;2022-11-06T10:46:51;6.82;;;3.03;;
4525;SDS011;2275;52.208;8.804;2022-11-06T10:49:22;5.50;;;2.60;;
4525;SDS011;2275;52.208;8.804;2022-11-06T10:51:50;4.07;;;2.33;;
4525;SDS011;2275;52.208;8.804;2022-11-06T10:54:25;7.03;;;2.78;;
4525;SDS011;2275;52.208;8.804;2022-11-06T10:57:10;6.12;;;2.70;;
4525;SDS011;2275;52.208;8.804;2022-11-06T10:59:34;6.03;;;2.70;;
4525;SDS011;2275;52.208;8.804;2022-11-06T11:02:01;6.37;;;3.10;;
4525;SDS011;2275;52.208;8.804;2022-11-06T11:04:30;6.03;;;2.30;;
4525;SDS011;2275;52.208;8.804;2022-11-06T11:06:56;4.57;;;2.70;;
4525;SDS011;2275;52.208;8.804;2022-11-06T11:09:26;5.00;;;2.60;;
4525;SDS011;2275;52.208;8.804;2022-11-06T11:11:53;5.43;;;2.50;;
4525;SDS011;2275;52.208;8.804;2022-11-06T11:14:22;6.00;;;2.80;;
4525;SDS011;2275;52.208;8.804;2022-11-06T11:16:48;5.45;;;2.55;;
4525;SDS011;2275;52.208;8.804;2022-11-06T11:19:21;5.00;;;2.50;;
4525;SDS011;2275;52.208;8.804;2022-11-06T11:21:56;6.20;;;2.55;;
4525;SDS011;2275;52.208;8.804;2022-11-06T11:24:24;4.62;;;2.55;;
4525;SDS011;2275;52.208;8.804;2022-11-06T11:26:52;4.37;;;2.33;;
4525;SDS011;2275;52.208;8.804;2022-11-06T11:29:22;4.78;;;2.45;;
4525;SDS011;2275;52.208;8.804;2022-11-06T11:31:58;5.55;;;2.35;;
4525;SDS011;2275;52.208;8.804;2022-11-06T11:34:26;5.93;;;2.60;;
4525;SDS011;2275;52.208;8.804;2022-11-06T11:36:57;5.43;;;2.30;;
4525;SDS011;2275;52.208;8.804;2022-11-06T11:39:25;5.82;;;3.10;;
4525;SDS011;2275;52.208;8.804;2022-11-06T11:41:51;5.85;;;2.70;;
4525;SDS011;2275;52.208;8.804;2022-11-06T11:44:18;4.18;;;2.30;;
4525;SDS011;2275;52.208;8.804;2022-11-06T11:46:49;4.85;;;2.60;;
4525;SDS011;2275;52.208;8.804;2022-11-06T11:49:32;6.03;;;2.50;;
4525;SDS011;2275;52.208;8.804;2022-11-06T11:52:00;3.75;;;2.00;;
4525;SDS011;2275;52.208;8.804;2022-11-06T11:54:27;5.20;;;2.50;;
4525;SDS011;2275;52.208;8.804;2022-11-06T11:57:00;6.87;;;2.80;;
4525;SDS011;2275;52.208;8.804;2022-11-06T11:59:29;6.47;;;2.35;;
4525;SDS011;2275;52.208;8.804;2022-11-06T12:01:59;4.80;;;2.40;;
4525;SDS011;2275;52.208;8.804;2022-11-06T12:04:30;6.80;;;2.17;;
4525;SDS011;2275;52.208;8.804;2022-11-06T12:07:01;5.97;;;2.50;;
4525;SDS011;2275;52.208;8.804;2022-11-06T12:09:28;7.72;;;2.42;;
4525;SDS011;2275;52.208;8.804;2022-11-06T12:11:54;9.27;;;4.10;;
4525;SDS011;2275;52.208;8.804;2022-11-06T12:14:29;6.97;;;3.37;;
4525;SDS011;2275;52.208;8.804;2022-11-06T12:16:58;9.05;;;2.60;;
4525;SDS011;2275;52.208;8.804;2022-11-06T12:19:41;4.93;;;2.50;;
4525;SDS011;2275;52.208;8.804;2022-11-06T12:22:11;3.97;;;2.58;;
4525;SDS011;2275;52.208;8.804;2022-11-06T12:24:40;5.05;;;2.87;;
4525;SDS011;2275;52.208;8.804;2022-11-06T12:27:12;5.25;;;2.35;;
4525;SDS011;2275;52.208;8.804;2022-11-06T12:29:46;8.20;;;3.10;;
4525;SDS011;2275;52.208;8.804;2022-11-06T12:32:57;5.65;;;2.40;;
4525;SDS011;2275;52.208;8.804;2022-11-06T12:35:16;4.53;;;2.45;;
4525;SDS011;2275;52.208;8.804;2022-11-06T12:38:01;3.65;;;2.05;;
4525;SDS011;2275;52.208;8.804;2022-11-06T12:40:37;5.40;;;2.62;;
4525;SDS011;2275;52.208;8.804;2022-11-06T12:46:07;4.23;;;2.50;;
4525;SDS011;2275;52.208;8.804;2022-11-06T12:48:42;5.40;;;2.30;;
4525;SDS011;2275;52.208;8.804;2022-11-06T12:52:07;7.05;;;2.47;;
4525;SDS011;2275;52.208;8.804;2022-11-06T12:54:39;6.12;;;3.40;;
4525;SDS011;2275;52.208;8.804;2022-11-06T12:57:20;5.43;;;3.62;;
4525;SDS011;2275;52.208;8.804;2022-11-06T12:59:59;8.63;;;3.45;;
4525;SDS011;2275;52.208;8.804;2022-11-06T13:02:43;5.53;;;3.50;;
4525;SDS011;2275;52.208;8.804;2022-11-06T13:05:18;8.27;;;3.28;;
4525;SDS011;2275;52.208;8.804;2022-11-06T13:10:58;9.90;;;4.00;;
4525;SDS011;2275;52.208;8.804;2022-11-06T13:16:06;6.97;;;3.60;;
4525;SDS011;2275;52.208;8.804;2022-11-06T13:18:34;8.23;;;3.70;;
4525;SDS011;2275;52.208;8.804;2022-11-06T13:21:04;4.80;;;3.00;;
4525;SDS011;2275;52.208;8.804;2022-11-06T13:23:46;6.00;;;3.80;;
4525;SDS011;2275;52.208;8.804;2022-11-06T13:26:14;6.15;;;3.30;;
4525;SDS011;2275;52.208;8.804;2022-11-06T13:28:43;5.78;;;3.70;;
4525;SDS011;2275;52.208;8.804;2022-11-06T13:31:11;8.38;;;3.50;;
4525;SDS011;2275;52.208;8.804;2022-11-06T13:33:41;5.87;;;3.65;;
4525;SDS011;2275;52.208;8.804;2022-11-06T13:36:07;13.15;;;4.05;;
4525;SDS011;2275;52.208;8.804;2022-11-06T13:38:37;7.45;;;3.83;;
4525;SDS011;2275;52.208;8.804;2022-11-06T13:41:10;8.32;;;3.58;;
4525;SDS011;2275;52.208;8.804;2022-11-06T13:43:43;6.37;;;3.62;;
4525;SDS011;2275;52.208;8.804;2022-11-06T13:48:58;7.53;;;3.95;;
4525;SDS011;2275;52.208;8.804;2022-11-06T13:51:38;6.32;;;3.50;;
4525;SDS011;2275;52.208;8.804;2022-11-06T13:57:29;8.48;;;3.12;;
4525;SDS011;2275;52.208;8.804;2022-11-06T13:59:42;7.37;;;3.80;;
4525;SDS011;2275;52.208;8.804;2022-11-06T14:02:23;5.25;;;3.70;;
4525;SDS011;2275;52.208;8.804;2022-11-06T14:05:02;8.43;;;4.75;;
4525;SDS011;2275;52.208;8.804;2022-11-06T14:07:40;9.30;;;4.50;;
4525;SDS011;2275;52.208;8.804;2022-11-06T14:12:46;8.50;;;3.90;;
4525;SDS011;2275;52.208;8.804;2022-11-06T14:15:22;14.20;;;7.65;;
4525;SDS011;2275;52.208;8.804;2022-11-06T14:20:27;10.45;;;3.83;;
4525;SDS011;2275;52.208;8.804;2022-11-06T14:22:53;7.30;;;3.62;;
4525;SDS011;2275;52.208;8.804;2022-11-06T14:28:09;9.68;;;5.25;;
4525;SDS011;2275;52.208;8.804;2022-11-06T14:30:37;5.50;;;3.60;;
4525;SDS011;2275;52.208;8.804;2022-11-06T14:33:08;7.95;;;3.17;;
4525;SDS011;2275;52.208;8.804;2022-11-06T14:35:47;6.25;;;3.60;;
4525;SDS011;2275;52.208;8.804;2022-11-06T14:38:32;7.35;;;3.30;;
4525;SDS011;2275;52.208;8.804;2022-11-06T14:41:01;4.35;;;2.85;;
4525;SDS011;2275;52.208;8.804;2022-11-06T14:43:31;7.85;;;3.78;;
4525;SDS011;2275;52.208;8.804;2022-11-06T14:46:03;10.43;;;3.25;;
4525;SDS011;2275;52.208;8.804;2022-11-06T14:48:33;8.90;;;2.70;;
4525;SDS011;2275;52.208;8.804;2022-11-06T14:51:00;8.60;;;3.55;;
4525;SDS011;2275;52.208;8.804;2022-11-06T14:53:28;6.87;;;3.85;;
4525;SDS011;2275;52.208;8.804;2022-11-06T14:58:46;9.95;;;5.55;;
4525;SDS011;2275;52.208;8.804;2022-11-06T15:01:13;9.40;;;5.10;;
4525;SDS011;2275;52.208;8.804;2022-11-06T15:03:48;6.43;;;3.70;;
4525;SDS011;2275;52.208;8.804;2022-11-06T15:09:12;6.15;;;3.50;;
4525;SDS011;2275;52.208;8.804;2022-11-06T15:17:10;7.07;;;2.90;;
4525;SDS011;2275;52.208;8.804;2022-11-06T15:19:38;7.15;;;2.70;;
4525;SDS011;2275;52.208;8.804;2022-11-06T15:22:27;4.55;;;2.72;;
4525;SDS011;2275;52.208;8.804;2022-11-06T15:24:53;6.37;;;3.25;;
4525;SDS011;2275;52.208;8.804;2022-11-06T15:27:21;7.00;;;3.60;;
4525;SDS011;2275;52.208;8.804;2022-11-06T15:29:48;5.30;;;3.03;;
4525;SDS011;2275;52.208;8.804;2022-11-06T15:32:18;7.25;;;3.40;;
4525;SDS011;2275;52.208;8.804;2022-11-06T15:34:45;4.75;;;2.72;;
4525;SDS011;2275;52.208;8.804;2022-11-06T15:37:12;6.27;;;2.90;;
4525;SDS011;2275;52.208;8.804;2022-11-06T15:39:39;6.90;;;3.25;;
4525;SDS011;2275;52.208;8.804;2022-11-06T15:42:09;4.10;;;2.37;;
4525;SDS011;2275;52.208;8.804;2022-11-06T15:44:37;6.65;;;2.85;;
4525;SDS011;2275;52.208;8.804;2022-11-06T15:47:04;6.60;;;3.20;;
4525;SDS011;2275;52.208;8.804;2022-11-06T15:49:30;4.20;;;2.47;;
4525;SDS011;2275;52.208;8.804;2022-11-06T15:51:58;3.28;;;2.30;;
4525;SDS011;2275;52.208;8.804;2022-11-06T15:54:29;6.37;;;3.20;;
4525;SDS011;2275;52.208;8.804;2022-11-06T15:57:01;6.43;;;2.80;;
4525;SDS011;2275;52.208;8.804;2022-11-06T15:59:30;8.07;;;2.90;;
4525;SDS011;2275;52.208;8.804;2022-11-06T16:02:02;5.22;;;3.47;;
4525;SDS011;2275;52.208;8.804;2022-11-06T16:04:32;7.62;;;2.60;;
4525;SDS011;2275;52.208;8.804;2022-11-06T16:07:04;5.05;;;2.85;;
4525;SDS011;2275;52.208;8.804;2022-11-06T16:09:32;6.90;;;2.60;;
4525;SDS011;2275;52.208;8.804;2022-11-06T16:11:59;4.78;;;2.47;;
4525;SDS011;2275;52.208;8.804;2022-11-06T16:14:27;4.47;;;2.40;;
4525;SDS011;2275;52.208;8.804;2022-11-06T16:16:55;5.72;;;2.90;;
4525;SDS011;2275;52.208;8.804;2022-11-06T16:19:27;4.80;;;2.62;;
4525;SDS011;2275;52.208;8.804;2022-11-06T16:22:32;4.35;;;2.30;;
4525;SDS011;2275;52.208;8.804;2022-11-06T16:25:00;4.30;;;2.10;;
4525;SDS011;2275;52.208;8.804;2022-11-06T16:27:26;8.05;;;3.80;;
4525;SDS011;2275;52.208;8.804;2022-11-06T16:29:55;6.43;;;2.42;;
4525;SDS011;2275;52.208;8.804;2022-11-06T16:32:22;6.97;;;2.50;;
4525;SDS011;2275;52.208;8.804;2022-11-06T16:34:49;5.12;;;2.50;;
4525;SDS011;2275;52.208;8.804;2022-11-06T16:40:04;4.68;;;2.72;;
4525;SDS011;2275;52.208;8.804;2022-11-06T16:42:31;6.00;;;3.00;;
4525;SDS011;2275;52.208;8.804;2022-11-06T16:45:16;4.28;;;2.80;;
4525;SDS011;2275;52.208;8.804;2022-11-06T16:47:42;6.15;;;2.10;;
4525;SDS011;2275;52.208;8.804;2022-11-06T16:52:58;3.47;;;2.30;;
4525;SDS011;2275;52.208;8.804;2022-11-06T16:55:25;5.00;;;2.70;;